Time;durP1;ratioP1;P1;durP2;ratioP2;P2;SDS_P1;SDS_P2;PMS_P1;PMS_P2;Temp;Humidity;BMP_temperature;BMP_pressure;BME280_temperature;BME280_humidity;BME280_pressure;Samples;Min_cycle;Max_cycle;Signal;HPM_P1;HPM_P2
2022/11/28 00:01:40;;;;;;;13.73;6.93;;;5.80;77.50;;;;;;4124401;28;20539;-86
2022/11/28 00:03:59;;;;;;;15.68;7.15;;;5.70;77.40;;;;;;4138652;28;20041;-84
2022/11/28 00:06:19;;;;;;;17.00;7.57;;;5.80;77.40;;;;;;4130481;28;20053;-84
2022/11/28 00:08:39;;;;;;;16.90;6.85;;;5.70;77.30;;;;;;4130328;28;20109;-84
2022/11/28 00:11:03;;;;;;;15.75;7.07;;;5.80;77.40;;;;;;4127875;28;20046;-85
2022/11/28 00:13:23;;;;;;;16.80;6.90;;;5.60;77.30;;;;;;4111827;28;20065;-85
2022/11/28 00:15:42;;;;;;;13.48;6.82;;;5.70;77.30;;;;;;4128828;28;20122;-85
2022/11/28 00:18:01;;;;;;;14.75;6.50;;;5.80;77.40;;;;;;4121206;28;20084;-85
2022/11/28 00:20:20;;;;;;;16.60;6.72;;;5.70;77.40;;;;;;4122591;28;20037;-85
2022/11/28 00:22:39;;;;;;;18.02;7.13;;;5.70;77.50;;;;;;4125954;28;20077;-85
2022/11/28 00:24:58;;;;;;;17.80;7.00;;;5.80;77.60;;;;;;4110148;28;20042;-85
2022/11/28 00:27:17;;;;;;;15.95;7.40;;;5.80;77.60;;;;;;4126176;28;20037;-85
2022/11/28 00:29:38;;;;;;;13.52;7.38;;;5.80;77.60;;;;;;4122583;28;20069;-85
2022/11/28 00:31:57;;;;;;;13.32;6.35;;;5.70;77.60;;;;;;4108448;28;20432;-85
2022/11/28 00:34:17;;;;;;;14.52;7.05;;;5.80;77.70;;;;;;4111028;28;20220;-85
2022/11/28 00:36:36;;;;;;;19.38;7.22;;;5.80;77.60;;;;;;4107672;28;20604;-86
2022/11/28 00:38:56;;;;;;;12.55;6.13;;;5.80;77.50;;;;;;4125515;28;20396;-86
2022/11/28 00:41:23;;;;;;;14.27;7.18;;;5.70;77.50;;;;;;4115375;28;20038;-85
2022/11/28 00:43:44;;;;;;;16.98;7.70;;;5.70;77.50;;;;;;4125293;28;20130;-85
2022/11/28 00:46:03;;;;;;;17.50;7.13;;;5.80;77.60;;;;;;4113209;28;20130;-84
2022/11/28 00:48:24;;;;;;;13.70;6.85;;;5.70;77.50;;;;;;4128463;28;20520;-87
2022/11/28 00:50:45;;;;;;;15.48;6.88;;;5.80;77.60;;;;;;4122363;28;20101;-85
2022/11/28 00:53:04;;;;;;;13.98;6.55;;;5.70;77.50;;;;;;4126798;28;20097;-85
2022/11/28 00:55:24;;;;;;;12.40;6.47;;;5.80;77.70;;;;;;4125634;28;20042;-84
2022/11/28 00:57:45;;;;;;;18.45;7.22;;;5.80;77.70;;;;;;4121255;28;20121;-86
2022/11/28 01:00:08;;;;;;;13.25;6.43;;;5.80;77.70;;;;;;4111017;28;20125;-86
2022/11/28 01:02:27;;;;;;;14.48;7.25;;;5.70;78.30;;;;;;4125771;28;20118;-85
2022/11/28 01:04:46;;;;;;;15.60;7.25;;;5.70;77.60;;;;;;4124569;28;20050;-85
2022/11/28 01:07:05;;;;;;;14.80;7.38;;;5.70;77.60;;;;;;4129280;28;20040;-85
2022/11/28 01:09:25;;;;;;;18.67;7.28;;;5.70;77.60;;;;;;4133131;28;20041;-84
2022/11/28 01:11:47;;;;;;;14.55;6.88;;;5.70;77.60;;;;;;4126533;28;20041;-85
2022/11/28 01:14:08;;;;;;;14.52;7.00;;;5.70;77.60;;;;;;4116386;28;20041;-84
2022/11/28 01:16:29;;;;;;;16.88;6.32;;;5.70;77.70;;;;;;4115639;28;20053;-84
2022/11/28 01:18:48;;;;;;;16.67;7.05;;;5.80;77.80;;;;;;4118282;28;20104;-84
2022/11/28 01:21:07;;;;;;;15.52;7.35;;;5.80;77.80;;;;;;4132672;28;20293;-84
2022/11/28 01:23:27;;;;;;;12.77;6.57;;;5.80;77.80;;;;;;4118594;28;20037;-85
2022/11/28 01:25:46;;;;;;;14.63;6.90;;;5.80;77.80;;;;;;4129612;28;20068;-85
2022/11/28 01:28:05;;;;;;;15.75;6.28;;;5.80;77.90;;;;;;4128851;28;20125;-84
2022/11/28 01:30:24;;;;;;;13.75;6.20;;;5.70;77.90;;;;;;4114395;28;20086;-85
2022/11/28 01:32:43;;;;;;;13.63;6.22;;;5.80;78.10;;;;;;4115544;28;20139;-85
2022/11/28 01:35:02;;;;;;;13.55;6.13;;;5.80;78.10;;;;;;4115244;28;20046;-84
2022/11/28 01:37:22;;;;;;;12.98;6.18;;;5.70;78.00;;;;;;4114509;28;20057;-85
2022/11/28 01:39:41;;;;;;;13.85;6.18;;;5.80;78.20;;;;;;4117057;28;20172;-83
2022/11/28 01:42:00;;;;;;;13.90;6.80;;;5.80;78.30;;;;;;4125826;28;20193;-84
2022/11/28 01:44:19;;;;;;;20.75;7.75;;;5.80;78.20;;;;;;4126050;28;20046;-85
2022/11/28 01:46:38;;;;;;;17.27;6.38;;;5.80;78.20;;;;;;4114948;28;20114;-85
2022/11/28 01:49:04;;;;;;;20.05;6.65;;;5.80;78.20;;;;;;4111473;28;20050;-84
2022/11/28 01:51:23;;;;;;;15.27;6.30;;;5.80;78.20;;;;;;4127731;28;20057;-84
2022/11/28 01:53:45;;;;;;;11.85;5.65;;;5.80;78.30;;;;;;4124066;28;20042;-84
2022/11/28 01:56:12;;;;;;;16.70;6.47;;;5.90;78.30;;;;;;4112075;28;20089;-84
2022/11/28 01:58:34;;;;;;;18.65;6.10;;;5.90;78.40;;;;;;4122895;28;20080;-86
2022/11/28 02:00:54;;;;;;;11.30;5.50;;;5.90;78.50;;;;;;4121344;28;20057;-83
2022/11/28 02:03:32;;;;;;;13.35;5.82;;;5.80;78.50;;;;;;4124582;28;20057;-85
2022/11/28 02:05:52;;;;;;;12.55;5.82;;;5.90;78.60;;;;;;4108904;28;20199;-85
2022/11/28 02:08:11;;;;;;;14.85;6.30;;;5.90;78.60;;;;;;4124394;28;20122;-85
2022/11/28 02:10:53;;;;;;;13.02;5.38;;;6.00;78.70;;;;;;4116712;28;20085;-84
2022/11/28 02:13:40;;;;;;;14.82;6.10;;;5.90;78.60;;;;;;4124799;28;20029;-85
2022/11/28 02:16:22;;;;;;;20.65;6.22;;;5.90;78.70;;;;;;4122423;28;20053;-84
2022/11/28 02:19:01;;;;;;;11.77;5.90;;;5.90;78.60;;;;;;4122259;28;20322;-85
2022/11/28 02:21:45;;;;;;;10.38;5.93;;;5.90;78.60;;;;;;4122208;28;20089;-84
2022/11/28 02:24:26;;;;;;;13.23;5.88;;;6.00;78.60;;;;;;4124708;28;20057;-84
2022/11/28 02:27:07;;;;;;;10.30;5.55;;;5.90;78.50;;;;;;4111563;28;20230;-84
2022/11/28 02:30:03;;;;;;;14.90;6.22;;;5.90;78.50;;;;;;4121032;28;20090;-85
2022/11/28 02:32:46;;;;;;;13.40;5.70;;;5.90;78.50;;;;;;4128182;28;20045;-84
2022/11/28 02:35:23;;;;;;;16.70;5.47;;;6.00;78.60;;;;;;4124919;28;20515;-85
2022/11/28 02:38:03;;;;;;;14.32;5.45;;;5.90;78.50;;;;;;4122538;28;20111;-85
2022/11/28 02:40:30;;;;;;;10.80;5.35;;;5.80;78.50;;;;;;4120906;28;20656;-85
2022/11/28 02:43:12;;;;;;;17.73;5.43;;;6.00;78.60;;;;;;4110138;28;20086;-85
2022/11/28 02:45:40;;;;;;;8.75;5.00;;;5.90;78.50;;;;;;4109229;28;20053;-85
2022/11/28 02:48:09;;;;;;;10.75;4.57;;;5.90;78.60;;;;;;4127994;28;20396;-84
2022/11/28 02:50:34;;;;;;;15.07;5.70;;;6.00;78.70;;;;;;4126500;28;20041;-85
2022/11/28 02:53:05;;;;;;;11.20;5.47;;;6.00;78.70;;;;;;4113665;28;20037;-84
2022/11/28 02:55:25;;;;;;;11.68;5.00;;;6.00;78.70;;;;;;4123880;28;20116;-84
2022/11/28 02:57:51;;;;;;;17.70;4.80;;;5.90;78.70;;;;;;4127558;28;20041;-85
2022/11/28 03:00:24;;;;;;;11.82;5.15;;;6.00;78.70;;;;;;4125631;28;20053;-84
2022/11/28 03:02:45;;;;;;;11.95;4.80;;;5.90;78.70;;;;;;4114932;28;20094;-84
2022/11/28 03:05:44;;;;;;;13.20;4.32;;;5.90;78.60;;;;;;4124144;28;20053;-84
2022/11/28 03:08:10;;;;;;;12.43;4.85;;;5.90;78.60;;;;;;4114841;28;20195;-84
2022/11/28 03:10:52;;;;;;;10.57;4.28;;;5.90;78.50;;;;;;4126986;28;20087;-84
2022/11/28 03:13:36;;;;;;;13.52;4.88;;;5.90;78.50;;;;;;4127387;28;20033;-84
2022/11/28 03:16:04;;;;;;;13.30;4.82;;;5.90;78.40;;;;;;4114181;28;20591;-85
2022/11/28 03:18:32;;;;;;;14.90;4.78;;;5.90;78.40;;;;;;4109561;28;20038;-84
2022/11/28 03:21:08;;;;;;;12.32;4.82;;;5.90;78.40;;;;;;4121018;28;20045;-83
2022/11/28 03:23:41;;;;;;;11.75;4.57;;;5.90;78.30;;;;;;4124146;28;20053;-84
2022/11/28 03:26:10;;;;;;;11.90;4.75;;;5.90;78.30;;;;;;4128088;28;20543;-83
2022/11/28 03:28:37;;;;;;;14.07;4.80;;;5.90;78.30;;;;;;4113960;28;20094;-83
2022/11/28 03:31:02;;;;;;;12.35;4.90;;;5.90;78.30;;;;;;4113285;28;20049;-84
2022/11/28 03:33:26;;;;;;;14.77;5.43;;;5.90;78.40;;;;;;4116434;28;20058;-85
2022/11/28 03:35:52;;;;;;;12.70;4.78;;;5.80;78.30;;;;;;4112531;28;20093;-85
2022/11/28 03:38:23;;;;;;;10.18;5.20;;;5.90;78.40;;;;;;4124110;28;20049;-85
2022/11/28 03:40:47;;;;;;;12.05;4.80;;;5.80;78.50;;;;;;4126527;28;20041;-84
2022/11/28 03:43:11;;;;;;;13.38;5.53;;;5.80;78.70;;;;;;4141171;28;20065;-84
2022/11/28 03:45:37;;;;;;;13.75;5.45;;;5.70;78.60;;;;;;4122553;28;20563;-85
2022/11/28 03:48:01;;;;;;;12.35;5.68;;;5.80;78.70;;;;;;4123538;28;20052;-85
2022/11/28 03:50:32;;;;;;;9.75;4.55;;;5.80;78.80;;;;;;4122960;28;20040;-86
2022/11/28 03:53:03;;;;;;;15.68;5.35;;;5.60;79.00;;;;;;4109129;28;20082;-85
2022/11/28 03:55:31;;;;;;;10.70;4.32;;;5.80;79.10;;;;;;4110607;28;20033;-86
2022/11/28 03:57:58;;;;;;;9.70;3.83;;;5.80;79.10;;;;;;4123993;28;20038;-85
2022/11/28 04:00:18;;;;;;;12.45;4.65;;;5.90;79.20;;;;;;4122779;28;20556;-84
2022/11/28 04:03:01;;;;;;;15.05;4.47;;;5.80;79.10;;;;;;4125149;28;20053;-84
2022/11/28 04:05:40;;;;;;;10.63;4.28;;;5.80;79.10;;;;;;4124090;28;20049;-85
2022/11/28 04:08:22;;;;;;;10.77;4.38;;;5.80;79.10;;;;;;4110819;28;20045;-85
2022/11/28 04:11:01;;;;;;;10.35;4.03;;;5.80;79.10;;;;;;4122656;28;20060;-85
2022/11/28 04:13:23;;;;;;;9.52;4.53;;;5.80;79.10;;;;;;4111290;28;20081;-84
2022/11/28 04:16:01;;;;;;;11.55;4.65;;;5.80;79.20;;;;;;4124118;28;20081;-85
2022/11/28 04:18:28;;;;;;;9.43;4.10;;;5.80;79.10;;;;;;4123470;28;20049;-83
2022/11/28 04:20:59;;;;;;;9.35;4.32;;;5.90;79.30;;;;;;4128063;28;20046;-84
2022/11/28 04:23:20;;;;;;;10.68;4.25;;;6.00;79.40;;;;;;4129163;28;20108;-85
2022/11/28 04:25:23;;;;;;;11.95;4.07;;;6.00;79.40;;;;;;4128729;28;20043;-84
2022/11/28 04:27:34;;;;;;;12.23;4.60;;;6.00;79.30;;;;;;4094559;28;20039;-85
2022/11/28 04:29:44;;;;;;;7.88;4.03;;;6.00;79.40;;;;;;4123364;28;20027;-84
2022/11/28 04:31:49;;;;;;;10.00;4.25;;;5.90;79.20;;;;;;4110801;28;20067;-85
2022/11/28 04:33:56;;;;;;;14.90;4.13;;;6.10;79.40;;;;;;4094495;28;20063;-82
2022/11/28 04:35:58;;;;;;;16.95;4.53;;;6.00;79.20;;;;;;4126831;28;20041;-85
2022/11/28 04:38:00;;;;;;;10.02;4.35;;;6.00;79.10;;;;;;4124117;28;20457;-84
2022/11/28 04:40:02;;;;;;;10.93;4.88;;;6.00;79.10;;;;;;4112604;28;20105;-85
2022/11/28 04:42:34;;;;;;;10.13;4.17;;;6.00;79.10;;;;;;4127124;28;20134;-83
2022/11/28 04:44:42;;;;;;;18.42;4.82;;;6.10;79.10;;;;;;4130553;28;20042;-82
2022/11/28 04:46:50;;;;;;;14.98;4.20;;;6.00;78.80;;;;;;4126811;28;20018;-83
2022/11/28 04:48:51;;;;;;;15.88;4.10;;;6.10;78.90;;;;;;4126882;28;20019;-84
2022/11/28 04:51:05;;;;;;;16.75;4.60;;;6.00;78.80;;;;;;4130605;28;20034;-84
2022/11/28 04:53:15;;;;;;;11.10;4.13;;;6.10;78.90;;;;;;4127992;28;20026;-84
2022/11/28 04:55:32;;;;;;;14.55;5.45;;;6.10;78.80;;;;;;4109763;28;20216;-84
2022/11/28 04:57:41;;;;;;;15.02;5.20;;;6.10;78.70;;;;;;4112822;28;20023;-84
2022/11/28 04:59:43;;;;;;;13.82;5.03;;;6.10;78.60;;;;;;4117095;28;20130;-83
2022/11/28 05:01:46;;;;;;;12.77;5.18;;;6.20;78.60;;;;;;4096263;28;20034;-85
2022/11/28 05:04:01;;;;;;;14.57;4.72;;;6.10;78.40;;;;;;4131482;28;20026;-83
2022/11/28 05:06:29;;;;;;;14.25;5.05;;;6.10;78.30;;;;;;4116258;28;20517;-84
2022/11/28 05:08:50;;;;;;;17.73;5.18;;;6.20;78.30;;;;;;4130746;28;20104;-84
2022/11/28 05:11:10;;;;;;;10.57;4.38;;;6.10;78.10;;;;;;4130277;28;20569;-83
2022/11/28 05:13:31;;;;;;;19.33;4.95;;;6.20;78.20;;;;;;4132837;28;20152;-83
2022/11/28 05:15:52;;;;;;;13.35;4.80;;;6.10;78.00;;;;;;4128454;28;20108;-85
2022/11/28 05:18:12;;;;;;;14.30;4.22;;;6.20;77.90;;;;;;4118121;28;20106;-84
2022/11/28 05:20:37;;;;;;;13.90;4.20;;;6.20;77.80;;;;;;4126036;28;20066;-84
2022/11/28 05:22:58;;;;;;;12.00;4.50;;;6.30;77.70;;;;;;4126805;28;20041;-85
2022/11/28 05:25:18;;;;;;;12.40;4.10;;;6.20;77.60;;;;;;4115670;28;20089;-85
2022/11/28 05:27:42;;;;;;;17.52;4.53;;;6.30;77.70;;;;;;4113017;28;20046;-85
2022/11/28 05:30:04;;;;;;;15.30;4.68;;;6.30;77.60;;;;;;4116654;28;20085;-86
2022/11/28 05:32:28;;;;;;;9.52;4.85;;;6.20;77.50;;;;;;4123357;28;20035;-84
2022/11/28 05:34:49;;;;;;;;;;;6.30;77.60;;;;;;4117643;28;20030;-85
2022/11/28 05:37:10;;;;;;;15.75;4.95;;;6.20;77.40;;;;;;4113681;28;20004;-85
2022/11/28 05:39:31;;;;;;;15.63;5.75;;;6.20;77.20;;;;;;4125458;28;20038;-84
2022/11/28 05:41:54;;;;;;;17.55;5.95;;;6.20;77.20;;;;;;4115979;28;20074;-82
2022/11/28 05:44:14;;;;;;;15.65;5.65;;;6.20;77.20;;;;;;4114531;28;20069;-83
2022/11/28 05:46:35;;;;;;;19.73;5.97;;;6.30;77.30;;;;;;4127704;28;20133;-85
2022/11/28 05:48:56;;;;;;;14.65;5.20;;;6.30;77.20;;;;;;4128078;28;20281;-85
2022/11/28 05:51:19;;;;;;;14.57;5.28;;;6.30;77.10;;;;;;4127678;28;20074;-83
2022/11/28 05:53:39;;;;;;;13.90;5.35;;;6.30;77.20;;;;;;4131535;28;20026;-84
2022/11/28 05:56:09;;;;;;;15.07;5.85;;;6.30;77.10;;;;;;4116497;28;20033;-84
2022/11/28 05:58:30;;;;;;;14.27;5.55;;;6.20;76.90;;;;;;4130091;28;20121;-83
2022/11/28 06:00:50;;;;;;;14.75;5.45;;;6.20;76.70;;;;;;4110472;28;20038;-84
2022/11/28 06:03:11;;;;;;;14.70;5.50;;;6.30;76.80;;;;;;4117005;28;20034;-85
2022/11/28 06:05:32;;;;;;;14.30;5.55;;;6.40;76.90;;;;;;4115033;28;20023;-84
2022/11/28 06:07:53;;;;;;;12.77;5.38;;;6.30;76.70;;;;;;4126594;28;20037;-85
2022/11/28 06:10:14;;;;;;;16.45;4.90;;;6.30;76.70;;;;;;4126770;28;20057;-84
2022/11/28 06:12:34;;;;;;;9.55;4.50;;;6.30;76.60;;;;;;4113702;28;20122;-85
2022/11/28 06:14:55;;;;;;;15.77;5.15;;;6.40;76.60;;;;;;4113585;28;20057;-84
2022/11/28 06:17:16;;;;;;;10.98;4.95;;;6.40;76.40;;;;;;4113603;28;20069;-85
2022/11/28 06:19:36;;;;;;;9.70;4.43;;;6.40;76.50;;;;;;4114202;28;20027;-85
2022/11/28 06:21:57;;;;;;;14.30;4.55;;;6.30;76.30;;;;;;4131506;28;20508;-84
2022/11/28 06:24:21;;;;;;;12.63;4.57;;;6.40;76.30;;;;;;4129416;28;20038;-85
2022/11/28 06:26:41;;;;;;;16.67;4.85;;;6.30;76.10;;;;;;4117470;28;20039;-84
2022/11/28 06:29:03;;;;;;;10.15;4.40;;;6.40;76.10;;;;;;4111036;28;20034;-85
2022/11/28 06:31:27;;;;;;;10.90;3.78;;;6.40;76.00;;;;;;4127812;28;20034;-85
2022/11/28 06:33:48;;;;;;;;;;;6.40;75.90;;;;;;4114669;28;20031;-85
2022/11/28 06:36:10;;;;;;;9.23;4.78;;;6.40;75.70;;;;;;4127516;28;19921;-84
2022/11/28 06:38:31;;;;;;;12.68;5.35;;;6.30;75.70;;;;;;4128872;28;20026;-86
2022/11/28 06:40:56;;;;;;;18.27;5.07;;;6.40;75.70;;;;;;4112678;28;20039;-85
2022/11/28 06:43:17;;;;;;;13.80;4.85;;;6.30;75.50;;;;;;4115484;28;20038;-85
2022/11/28 06:45:36;;;;;;;11.65;4.80;;;6.30;75.40;;;;;;4113152;28;20045;-84
2022/11/28 06:47:56;;;;;;;14.88;5.68;;;6.40;75.50;;;;;;4112476;28;20034;-84
2022/11/28 06:50:16;;;;;;;12.27;5.28;;;6.30;75.10;;;;;;4130607;28;20093;-85
2022/11/28 06:52:37;;;;;;;9.70;4.82;;;6.30;75.10;;;;;;4126928;28;20055;-85
2022/11/28 06:54:58;;;;;;;9.40;4.75;;;6.30;75.10;;;;;;4113581;28;20034;-85
2022/11/28 06:57:19;;;;;;;11.85;5.45;;;6.30;75.10;;;;;;4114347;28;20035;-85
2022/11/28 06:59:39;;;;;;;11.75;4.63;;;6.40;74.90;;;;;;4113203;28;20035;-86
2022/11/28 07:02:01;;;;;;;11.20;5.35;;;6.30;74.90;;;;;;4125796;28;20088;-84
2022/11/28 07:04:21;;;;;;;8.18;4.47;;;6.40;74.80;;;;;;4126071;28;20049;-85
2022/11/28 07:06:40;;;;;;;13.80;5.53;;;6.30;74.80;;;;;;4111403;28;20038;-86
2022/11/28 07:08:59;;;;;;;12.68;5.32;;;6.40;74.80;;;;;;4124702;28;20571;-86
2022/11/28 07:11:21;;;;;;;13.60;5.78;;;6.40;75.30;;;;;;4120762;28;20033;-85
2022/11/28 07:13:41;;;;;;;11.05;5.05;;;6.30;74.50;;;;;;4125368;28;20053;-85
2022/11/28 07:16:01;;;;;;;12.95;5.78;;;6.30;74.40;;;;;;4126878;28;20034;-85
2022/11/28 07:18:20;;;;;;;11.57;5.50;;;6.40;74.40;;;;;;4130626;28;20096;-85
2022/11/28 07:20:39;;;;;;;15.07;5.95;;;6.40;74.30;;;;;;4131515;28;20084;-84
2022/11/28 07:22:58;;;;;;;14.88;5.82;;;6.30;74.20;;;;;;4126304;28;20045;-84
2022/11/28 07:25:17;;;;;;;13.02;6.03;;;6.20;74.00;;;;;;4112259;28;20126;-84
2022/11/28 07:27:37;;;;;;;13.73;5.82;;;6.20;73.90;;;;;;4113615;28;20586;-85
2022/11/28 07:29:56;;;;;;;13.02;6.25;;;6.30;73.90;;;;;;4113026;28;20429;-85
2022/11/28 07:32:15;;;;;;;15.38;6.20;;;6.30;73.80;;;;;;4130050;28;20471;-84
2022/11/28 07:34:35;;;;;;;20.83;5.95;;;6.30;73.90;;;;;;4113563;28;20070;-84
2022/11/28 07:36:54;;;;;;;15.05;6.10;;;6.20;73.90;;;;;;4114166;28;20057;-85
2022/11/28 07:39:16;;;;;;;11.15;5.90;;;6.20;73.90;;;;;;4114605;28;20175;-85
2022/11/28 07:41:37;;;;;;;16.95;6.47;;;6.20;73.90;;;;;;4118766;28;20121;-85
2022/11/28 07:44:00;;;;;;;14.07;6.05;;;6.20;73.80;;;;;;4122062;28;20104;-84
2022/11/28 07:46:20;;;;;;;10.85;5.80;;;6.10;73.70;;;;;;4122396;28;20063;-85
2022/11/28 07:48:39;;;;;;;12.45;6.20;;;6.20;73.80;;;;;;4110597;28;20129;-84
2022/11/28 07:50:59;;;;;;;13.75;6.53;;;6.20;73.80;;;;;;4124473;28;20057;-84
2022/11/28 07:53:18;;;;;;;11.05;6.43;;;6.10;73.70;;;;;;4127180;28;20069;-86
2022/11/28 07:55:37;;;;;;;12.40;6.43;;;6.20;73.90;;;;;;4114215;28;20062;-85
2022/11/28 07:57:56;;;;;;;11.18;6.22;;;6.10;73.80;;;;;;4127551;28;20535;-84
2022/11/28 08:00:16;;;;;;;14.65;7.10;;;6.10;73.70;;;;;;4118722;28;20114;-86
2022/11/28 08:02:38;;;;;;;13.25;6.18;;;6.00;73.40;;;;;;4130582;28;20045;-84
2022/11/28 08:04:57;;;;;;;12.45;6.40;;;6.10;73.70;;;;;;4112451;28;20717;-85
2022/11/28 08:07:16;;;;;;;16.80;7.28;;;6.00;73.70;;;;;;4127864;28;20041;-84
2022/11/28 08:09:36;;;;;;;13.55;7.28;;;6.00;74.50;;;;;;4111359;28;20062;-85
2022/11/28 08:11:55;;;;;;;14.93;6.72;;;6.10;73.70;;;;;;4113212;28;20038;-85
2022/11/28 08:14:17;;;;;;;11.55;6.47;;;6.00;73.80;;;;;;4113717;28;20078;-85
2022/11/28 08:16:40;;;;;;;16.17;6.82;;;6.00;73.90;;;;;;4114090;28;20038;-83
2022/11/28 08:19:00;;;;;;;18.42;7.57;;;6.00;73.80;;;;;;4125619;28;20617;-85
2022/11/28 08:21:32;;;;;;;15.43;7.07;;;5.90;73.50;;;;;;4131576;28;20085;-86
2022/11/28 08:23:56;;;;;;;15.95;7.38;;;6.00;73.70;;;;;;4137837;28;20122;-85
2022/11/28 08:26:19;;;;;;;15.77;6.68;;;5.90;73.70;;;;;;4120649;28;20041;-85
2022/11/28 08:28:39;;;;;;;17.02;7.47;;;6.00;73.90;;;;;;4116302;28;20050;-84
2022/11/28 08:31:00;;;;;;;15.27;7.43;;;6.10;73.90;;;;;;4127539;28;20057;-85
2022/11/28 08:33:20;;;;;;;16.33;7.20;;;6.00;73.80;;;;;;4115957;28;20259;-85
2022/11/28 08:35:40;;;;;;;15.93;6.63;;;5.90;73.50;;;;;;4131351;28;20049;-84
2022/11/28 08:37:59;;;;;;;15.25;6.90;;;5.90;73.60;;;;;;4116174;28;20042;-84
2022/11/28 08:40:19;;;;;;;16.98;7.43;;;6.00;73.70;;;;;;4116160;28;20357;-84
2022/11/28 08:42:38;;;;;;;19.02;7.63;;;6.00;73.60;;;;;;4126813;28;20323;-86
2022/11/28 08:44:57;;;;;;;15.48;6.90;;;6.00;73.50;;;;;;4127884;28;20450;-84
2022/11/28 08:47:17;;;;;;;14.85;7.55;;;6.00;73.60;;;;;;4126665;28;20085;-86
2022/11/28 08:49:37;;;;;;;15.98;7.28;;;6.00;73.40;;;;;;4119372;28;20042;-86
2022/11/28 08:51:56;;;;;;;15.50;7.03;;;6.10;73.50;;;;;;4114013;28;20049;-85
2022/11/28 08:54:15;;;;;;;14.32;7.45;;;6.10;73.50;;;;;;4127321;28;20042;-86
2022/11/28 08:56:35;;;;;;;15.93;7.30;;;6.10;73.40;;;;;;4115926;28;20171;-85
2022/11/28 08:58:54;;;;;;;19.83;7.30;;;6.10;73.40;;;;;;4127269;28;20072;-85
2022/11/28 09:01:22;;;;;;;19.30;7.55;;;6.10;73.10;;;;;;4130728;28;20173;-86
2022/11/28 09:03:41;;;;;;;22.48;7.35;;;6.00;73.20;;;;;;4116453;28;20030;-85
2022/11/28 09:06:03;;;;;;;13.02;7.32;;;6.00;73.10;;;;;;4126119;28;20041;-83
2022/11/28 09:08:22;;;;;;;15.32;7.32;;;6.00;73.10;;;;;;4128951;28;20042;-88
2022/11/28 09:10:42;;;;;;;22.75;7.40;;;6.00;73.20;;;;;;4127216;28;20041;-85
2022/11/28 09:13:05;;;;;;;15.10;7.20;;;6.00;73.00;;;;;;4126506;28;20110;-85
2022/11/28 09:15:24;;;;;;;15.52;8.10;;;6.00;73.00;;;;;;4114346;28;20149;-85
2022/11/28 09:17:46;;;;;;;20.70;8.10;;;6.00;73.00;;;;;;4127065;28;20093;-86
2022/11/28 09:20:06;;;;;;;16.73;7.53;;;6.00;72.90;;;;;;4127157;28;20045;-86
2022/11/28 09:22:28;;;;;;;14.50;7.68;;;6.00;73.10;;;;;;4121268;28;20099;-86
2022/11/28 09:24:44;;;;;;;24.77;7.65;;;6.20;73.30;;;;;;4129437;28;20046;-83
2022/11/28 09:27:03;;;;;;;17.73;7.80;;;6.10;73.10;;;;;;4126366;28;20072;-86
2022/11/28 09:29:22;;;;;;;14.60;7.18;;;6.20;73.40;;;;;;4125937;28;20704;-86
2022/11/28 09:31:42;;;;;;;15.45;7.93;;;6.20;73.40;;;;;;4126961;28;20049;-85
2022/11/28 09:34:03;;;;;;;17.80;7.68;;;6.10;73.30;;;;;;4114617;28;20069;-88
2022/11/28 09:36:23;;;;;;;15.38;7.82;;;6.20;73.50;;;;;;4115138;28;20822;-83
2022/11/28 09:38:43;;;;;;;15.85;7.60;;;6.10;73.40;;;;;;4115103;28;20045;-86
2022/11/28 09:41:27;;;;;;;18.05;7.50;;;6.10;73.40;;;;;;4128143;28;20065;-86
2022/11/28 09:43:48;;;;;;;17.13;6.70;;;6.10;73.30;;;;;;4128622;28;20134;-86
2022/11/28 09:46:17;;;;;;;18.08;6.70;;;6.20;73.40;;;;;;4129219;28;20068;-85
2022/11/28 09:48:43;;;;;;;16.95;7.05;;;6.20;73.40;;;;;;4124678;28;20049;-85
2022/11/28 09:51:24;;;;;;;20.02;7.13;;;6.30;73.50;;;;;;4127179;28;20092;-86
2022/11/28 09:54:15;;;;;;;14.63;7.13;;;6.20;73.30;;;;;;4113315;28;20540;-86
2022/11/28 09:56:34;;;;;;;17.80;6.78;;;6.20;73.10;;;;;;4116088;28;20034;-86
2022/11/28 09:58:54;;;;;;;21.77;8.02;;;6.30;73.00;;;;;;4126991;28;20519;-88
2022/11/28 10:01:43;;;;;;;16.63;7.38;;;6.30;73.00;;;;;;4113185;28;20038;-87
2022/11/28 10:04:18;;;;;;;20.45;7.75;;;6.30;72.80;;;;;;4112044;28;20090;-86
2022/11/28 10:07:16;;;;;;;19.88;7.28;;;6.30;72.50;;;;;;4111995;28;20093;-86
2022/11/28 10:09:56;;;;;;;16.02;7.50;;;6.30;72.50;;;;;;4126116;28;20085;-86
2022/11/28 10:16:31;;;;;;;;;;;;;;;;;;;;;
2022/11/28 10:18:53;;;;;;;15.90;8.15;;;6.30;72.20;;;;;;4125099;28;20042;-85
2022/11/28 10:23:36;;;;;;;17.95;7.60;;;6.30;71.90;;;;;;4152076;22;20068;-89
2022/11/28 10:26:07;;;;;;;17.02;6.68;;;6.30;72.00;;;;;;4151764;28;20040;-89
2022/11/28 10:28:31;;;;;;;18.15;7.40;;;6.40;71.90;;;;;;4151899;28;20799;-89
2022/11/28 10:31:05;;;;;;;15.30;7.15;;;6.30;71.70;;;;;;4130611;28;20152;-89
2022/11/28 10:33:39;;;;;;;15.83;7.20;;;6.30;71.80;;;;;;4135482;28;20041;-88
2022/11/28 10:36:02;;;;;;;15.68;7.25;;;6.30;71.80;;;;;;4135851;28;20026;-89
2022/11/28 10:38:27;;;;;;;17.83;7.90;;;6.30;71.80;;;;;;4133940;28;20104;-90
2022/11/28 10:41:24;;;;;;;18.33;7.32;;;6.20;71.70;;;;;;4133995;28;20092;-88
2022/11/28 10:43:56;;;;;;;14.65;7.22;;;6.30;71.80;;;;;;4132926;28;20138;-89
2022/11/28 10:46:18;;;;;;;15.38;7.60;;;6.40;71.70;;;;;;4134253;28;20406;-89
2022/11/28 10:48:44;;;;;;;16.05;7.15;;;6.30;71.60;;;;;;4113657;28;20039;-89
2022/11/28 10:51:34;;;;;;;13.98;6.78;;;6.40;71.80;;;;;;4117023;28;20065;-89
2022/11/28 10:54:26;;;;;;;14.98;7.32;;;6.30;71.70;;;;;;4133497;28;20041;-89
2022/11/28 10:57:16;;;;;;;18.90;7.38;;;6.30;71.70;;;;;;4111757;28;20068;-89
2022/11/28 10:59:35;;;;;;;15.52;7.32;;;6.30;71.70;;;;;;4117548;28;20057;-88
2022/11/28 11:01:55;;;;;;;19.85;7.43;;;6.30;71.90;;;;;;4129816;28;20453;-89
2022/11/28 11:04:20;;;;;;;13.25;7.03;;;6.40;72.00;;;;;;4133324;28;20040;-88
2022/11/28 11:06:39;;;;;;;19.45;7.88;;;6.40;71.90;;;;;;4115353;28;20056;-88
2022/11/28 11:08:58;;;;;;;16.58;7.22;;;6.30;72.00;;;;;;4107977;28;20041;-89
2022/11/28 11:11:26;;;;;;;17.75;7.50;;;6.30;72.10;;;;;;4104536;28;20053;-89
2022/11/28 11:14:06;;;;;;;16.42;7.63;;;6.30;72.20;;;;;;4127960;28;20046;-89
2022/11/28 11:16:45;;;;;;;18.73;7.75;;;6.20;72.00;;;;;;4120802;28;20080;-89
2022/11/28 11:19:04;;;;;;;19.77;7.82;;;6.20;72.10;;;;;;4111663;28;20086;-89
2022/11/28 11:21:26;;;;;;;13.23;7.20;;;6.20;72.10;;;;;;4124916;28;20040;-90
2022/11/28 11:23:47;;;;;;;17.88;7.13;;;6.20;72.20;;;;;;4123071;28;20450;-89
2022/11/28 11:26:09;;;;;;;14.70;6.90;;;6.20;72.30;;;;;;4112199;28;20057;-89
2022/11/28 11:28:38;;;;;;;17.40;7.53;;;6.30;72.40;;;;;;4129874;28;20044;-89
2022/11/28 11:31:03;;;;;;;15.90;7.60;;;6.20;72.30;;;;;;4106258;28;20065;-88
2022/11/28 11:33:25;;;;;;;14.98;6.90;;;6.20;72.40;;;;;;4110378;28;20161;-89
2022/11/28 11:35:47;;;;;;;17.80;7.95;;;6.30;72.50;;;;;;4127560;28;20069;-90
2022/11/28 11:38:29;;;;;;;13.90;6.70;;;6.20;72.50;;;;;;4114611;28;20683;-89
2022/11/28 11:40:50;;;;;;;23.65;7.68;;;6.20;72.50;;;;;;4124393;28;20052;-90
2022/11/28 11:43:31;;;;;;;15.70;7.32;;;6.20;72.60;;;;;;4122409;28;20218;-88
2022/11/28 11:46:23;;;;;;;15.25;7.13;;;6.20;72.60;;;;;;4111733;28;20102;-90
2022/11/28 11:48:42;;;;;;;14.50;7.10;;;6.10;72.50;;;;;;4063793;29;20651;-89
2022/11/28 11:51:02;;;;;;;14.82;7.70;;;6.10;72.60;;;;;;4056713;29;20047;-90
2022/11/28 11:53:21;;;;;;;14.95;7.70;;;6.10;72.60;;;;;;4048370;29;20125;-90
2022/11/28 11:55:50;;;;;;;15.10;7.20;;;6.10;72.60;;;;;;4059231;29;20047;-89
2022/11/28 11:58:13;;;;;;;16.92;7.45;;;6.10;72.70;;;;;;4047138;29;20566;-88
2022/11/28 12:00:38;;;;;;;16.52;7.25;;;6.10;72.80;;;;;;4047764;29;20050;-90
2022/11/28 12:03:29;;;;;;;14.75;6.85;;;6.10;72.80;;;;;;4065071;29;20046;-89
2022/11/28 12:05:53;;;;;;;13.75;6.80;;;6.10;73.10;;;;;;4055747;29;20773;-88
2022/11/28 12:08:33;;;;;;;13.45;7.18;;;6.00;72.90;;;;;;4063345;29;20139;-89
2022/11/28 12:11:03;;;;;;;16.60;7.10;;;6.00;72.90;;;;;;4057842;29;21857;-89
2022/11/28 12:13:23;;;;;;;18.08;7.85;;;6.00;73.00;;;;;;4065565;29;20083;-88
2022/11/28 12:15:59;;;;;;;14.25;7.13;;;6.00;73.10;;;;;;4066090;29;20251;-90
2022/11/28 12:18:31;;;;;;;17.55;7.43;;;6.00;73.30;;;;;;4048551;29;20040;-89
2022/11/28 12:20:59;;;;;;;16.60;7.22;;;5.90;73.20;;;;;;4068767;29;20784;-89
2022/11/28 12:23:31;;;;;;;16.90;8.00;;;5.90;73.30;;;;;;4050362;29;20051;-89
2022/11/28 12:26:00;;;;;;;18.20;7.15;;;5.90;74.10;;;;;;4130712;28;20139;-90
2022/11/28 12:28:40;;;;;;;14.05;7.40;;;5.90;73.30;;;;;;4131160;28;20048;-90
2022/11/28 12:31:18;;;;;;;19.05;7.72;;;6.00;73.50;;;;;;4131400;28;20096;-90
2022/11/28 12:34:12;;;;;;;16.15;7.97;;;5.90;73.50;;;;;;4129908;28;20053;-90
2022/11/28 12:36:40;;;;;;;12.77;6.82;;;5.80;73.50;;;;;;4119218;28;20105;-91
2022/11/28 12:39:17;;;;;;;17.63;7.70;;;5.80;73.50;;;;;;4126742;28;20193;-89